Lawrence, KS (66044)

4:11 PM CDT on July 27, 2016 (GMT -0500)
University Place | | Change Station

Elev 912 ft 38.95 °N, 95.24 °W | Updated 24 minutes ago

Clear
Clear
89.4 °F
Feels Like 93 °F
N
0.0
Wind Variable Wind from NW

Today
High -- | Low -- °F
--% Chance of Precip.
Yesterday
High -- | Low -- °F
Precip. -- in
Pressure 29.92 in
Visibility 10.0 miles
Clouds Clear
Heat Index 93 °F
Dew Point 68 °F
Humidity 50%
Rainfall 0.00 in
Snow Depth Not available.
6:17 AM 8:36 PM
Last Quarter, 39% visible
METAR KLWC 272052Z AUTO 30006KT 10SM CLR 33/18 A2994 RMK AO2 SLP130 T03330183 56017
Pressure 29.92 in
Visibility 10.0 miles
Clouds Clear
Heat Index 93 °F
Dew Point 68 °F
Humidity 50%
Rainfall 0.00 in
Snow Depth Not available.
6:17 AM 8:36 PM
Last Quarter, 39% visible
METAR KLWC 272052Z AUTO 30006KT 10SM CLR 33/18 A2994 RMK AO2 SLP130 T03330183 56017

10-Day Weather Forecast

Almanac

Astronomy

Jul. 27, 2016 Rise Set
Actual Time
Civil Twilight
Nautical Twilight
Astronomical Twilight
Moon
Length of Visible Light
Length of Day
Tomorrow will be .
, % of the Moon is Illuminated

Today's Extremes

State Highs State Lows

Community

WunderPhotos

Upload Photos

1,927,937 photos uploaded!

WunderBlog® & News

Nearby

Air Quality

  Air Quality AQ Index Pollutant
Not available.

Snow Depth

Station Depth Elevation

Earthquake Activity

City Distance Mag. Time & Date
Minimum magnitude displayed is 2.5.

Coastal Water Temperatures

Place Temperature

Stations

Nearby Weather Stations

Station Location Temp. Windchill Dew Point Humidity Wind Precip. Elev Updated Type
                   

Watches & Warnings

There are currently no watches in effect.